Troodos, Cyprus
Current Conditions -  °F | °C
As of 4:50 AM on Tuesday 21 Oct 2014 (Local Time) from LCRA Reporting Station
Clear Clear  
Wind Chill: 55°   Ceiling: Unl
Heat Index: 55°   Visibility: 6mi
Dew Point: 39°   Wind: 1mph
Humidity: 54%   Direction: 330°NNW
Pressure: 29.94"   Gusts: NA
Location:  34.93°N, 32.87°E
Report Text: LCRA 210150Z 33001KT CAVOK 13/04 Q1014 NOSIG
Loading
Personal Weather Stations






























Interactive Weather Map
Tropical Storm Tracking
New forecast layout! Learn more

10-Day Weather Forecast

Advertisements
Track Severe Weather on mobile